sensor_id;sensor_type;location;lat;lon;timestamp;pressure;altitude;pressure_sealevel;temperature;humidity
39411;BME280;26579;43.238;23.124;2022-10-16T00:01:27;97706.78;;;11.32;70.22
39411;BME280;26579;43.238;23.124;2022-10-16T00:03:54;97712.97;;;11.42;70.13
39411;BME280;26579;43.238;23.124;2022-10-16T00:06:21;97711.75;;;11.35;69.96
39411;BME280;26579;43.238;23.124;2022-10-16T00:08:48;97718.84;;;11.33;70.30
39411;BME280;26579;43.238;23.124;2022-10-16T00:11:20;97702.09;;;11.24;70.28
39411;BME280;26579;43.238;23.124;2022-10-16T00:13:48;97704.63;;;11.26;70.80
39411;BME280;26579;43.238;23.124;2022-10-16T00:16:14;97696.34;;;11.32;70.41
39411;BME280;26579;43.238;23.124;2022-10-16T00:18:41;97688.84;;;11.27;70.33
39411;BME280;26579;43.238;23.124;2022-10-16T00:21:14;97699.19;;;11.29;70.40
39411;BME280;26579;43.238;23.124;2022-10-16T00:24:02;97715.19;;;11.36;70.36
39411;BME280;26579;43.238;23.124;2022-10-16T00:26:30;97698.66;;;11.24;70.74
39411;BME280;26579;43.238;23.124;2022-10-16T00:28:56;97709.16;;;11.35;70.36
39411;BME280;26579;43.238;23.124;2022-10-16T00:31:22;97715.28;;;11.34;70.35
39411;BME280;26579;43.238;23.124;2022-10-16T00:33:49;97685.47;;;11.14;70.37
39411;BME280;26579;43.238;23.124;2022-10-16T00:36:18;97710.16;;;11.21;70.36
39411;BME280;26579;43.238;23.124;2022-10-16T00:38:44;97717.19;;;11.32;70.56
39411;BME280;26579;43.238;23.124;2022-10-16T00:41:17;97712.84;;;11.20;70.59
39411;BME280;26579;43.238;23.124;2022-10-16T00:43:45;97721.31;;;11.23;70.91
39411;BME280;26579;43.238;23.124;2022-10-16T00:46:35;97712.66;;;11.23;70.67
39411;BME280;26579;43.238;23.124;2022-10-16T00:49:09;97727.41;;;11.35;70.19
39411;BME280;26579;43.238;23.124;2022-10-16T00:51:36;97721.84;;;11.40;70.19
39411;BME280;26579;43.238;23.124;2022-10-16T00:54:04;97701.88;;;11.27;70.19
39411;BME280;26579;43.238;23.124;2022-10-16T00:56:32;97706.88;;;11.30;70.06
39411;BME280;26579;43.238;23.124;2022-10-16T00:58:59;97720.50;;;11.34;70.11
39411;BME280;26579;43.238;23.124;2022-10-16T01:01:26;97727.00;;;11.28;69.86
39411;BME280;26579;43.238;23.124;2022-10-16T01:03:53;97725.94;;;11.31;69.84
39411;BME280;26579;43.238;23.124;2022-10-16T01:06:36;97713.47;;;11.23;69.90
39411;BME280;26579;43.238;23.124;2022-10-16T01:09:40;97723.09;;;11.23;70.40
39411;BME280;26579;43.238;23.124;2022-10-16T01:12:15;97711.63;;;11.13;70.86
39411;BME280;26579;43.238;23.124;2022-10-16T01:14:48;97717.47;;;11.16;70.64
39411;BME280;26579;43.238;23.124;2022-10-16T01:31:29;97737.91;;;11.09;71.13
39411;BME280;26579;43.238;23.124;2022-10-16T01:34:03;97733.31;;;11.13;71.18
39411;BME280;26579;43.238;23.124;2022-10-16T01:36:52;97738.22;;;11.18;70.46
39411;BME280;26579;43.238;23.124;2022-10-16T01:39:24;97728.22;;;11.12;70.87
39411;BME280;26579;43.238;23.124;2022-10-16T01:41:55;97723.56;;;11.04;70.57
39411;BME280;26579;43.238;23.124;2022-10-16T01:44:29;97722.22;;;10.98;70.72
39411;BME280;26579;43.238;23.124;2022-10-16T01:46:56;97728.97;;;11.01;70.76
39411;BME280;26579;43.238;23.124;2022-10-16T01:49:25;97728.38;;;10.97;71.39
39411;BME280;26579;43.238;23.124;2022-10-16T01:51:55;97727.56;;;10.97;71.10
39411;BME280;26579;43.238;23.124;2022-10-16T01:54:23;97726.25;;;11.02;70.66
39411;BME280;26579;43.238;23.124;2022-10-16T01:56:51;97728.75;;;11.04;70.94
39411;BME280;26579;43.238;23.124;2022-10-16T01:59:20;97729.06;;;10.99;71.24
39411;BME280;26579;43.238;23.124;2022-10-16T02:01:49;97733.03;;;11.05;70.73
39411;BME280;26579;43.238;23.124;2022-10-16T02:04:44;97730.84;;;10.99;71.23
39411;BME280;26579;43.238;23.124;2022-10-16T02:07:11;97718.50;;;10.90;70.42
39411;BME280;26579;43.238;23.124;2022-10-16T02:09:38;97721.00;;;10.78;71.02
39411;BME280;26579;43.238;23.124;2022-10-16T02:12:16;97742.31;;;10.96;70.78
39411;BME280;26579;43.238;23.124;2022-10-16T02:14:44;97733.16;;;10.91;70.62
39411;BME280;26579;43.238;23.124;2022-10-16T02:17:16;97744.72;;;10.99;70.58
39411;BME280;26579;43.238;23.124;2022-10-16T02:19:43;97745.06;;;10.95;70.80
39411;BME280;26579;43.238;23.124;2022-10-16T02:22:15;97734.03;;;10.91;70.69
39411;BME280;26579;43.238;23.124;2022-10-16T02:32:44;97757.78;;;10.86;70.91
39411;BME280;26579;43.238;23.124;2022-10-16T02:35:11;97751.44;;;10.78;71.13
39411;BME280;26579;43.238;23.124;2022-10-16T02:37:38;97753.22;;;10.77;71.23
39411;BME280;26579;43.238;23.124;2022-10-16T02:40:06;97741.75;;;10.67;71.22
39411;BME280;26579;43.238;23.124;2022-10-16T02:42:38;97761.84;;;10.78;71.10
39411;BME280;26579;43.238;23.124;2022-10-16T02:45:05;97751.13;;;10.70;71.28
39411;BME280;26579;43.238;23.124;2022-10-16T02:47:31;97771.66;;;10.74;71.38
39411;BME280;26579;43.238;23.124;2022-10-16T02:49:57;97764.69;;;10.75;71.40
39411;BME280;26579;43.238;23.124;2022-10-16T02:52:23;97763.84;;;10.74;70.98
39411;BME280;26579;43.238;23.124;2022-10-16T02:54:48;97749.47;;;10.56;71.23
39411;BME280;26579;43.238;23.124;2022-10-16T02:57:14;97769.28;;;10.58;71.76
39411;BME280;26579;43.238;23.124;2022-10-16T02:59:40;97780.00;;;10.54;71.78
39411;BME280;26579;43.238;23.124;2022-10-16T03:02:05;97771.25;;;10.55;71.49
39411;BME280;26579;43.238;23.124;2022-10-16T03:04:31;97764.09;;;10.46;71.63
39411;BME280;26579;43.238;23.124;2022-10-16T03:06:57;97772.63;;;10.48;71.85
39411;BME280;26579;43.238;23.124;2022-10-16T03:09:22;97774.81;;;10.54;71.93
39411;BME280;26579;43.238;23.124;2022-10-16T03:11:48;97763.66;;;10.52;71.42
39411;BME280;26579;43.238;23.124;2022-10-16T03:14:14;97778.84;;;10.58;71.27
39411;BME280;26579;43.238;23.124;2022-10-16T03:16:40;97765.31;;;10.53;71.81
39411;BME280;26579;43.238;23.124;2022-10-16T03:19:05;97784.69;;;10.61;71.25
39411;BME280;26579;43.238;23.124;2022-10-16T03:21:31;97761.16;;;10.50;71.19
39411;BME280;26579;43.238;23.124;2022-10-16T03:23:57;97770.72;;;10.50;71.37
39411;BME280;26579;43.238;23.124;2022-10-16T03:26:22;97780.84;;;10.54;72.01
39411;BME280;26579;43.238;23.124;2022-10-16T03:28:48;97774.28;;;10.49;71.77
39411;BME280;26579;43.238;23.124;2022-10-16T03:31:14;97783.53;;;10.53;71.84
39411;BME280;26579;43.238;23.124;2022-10-16T03:33:39;97777.19;;;10.57;71.70
39411;BME280;26579;43.238;23.124;2022-10-16T03:36:05;97769.50;;;10.68;71.31
39411;BME280;26579;43.238;23.124;2022-10-16T03:38:31;97752.19;;;10.54;71.36
39411;BME280;26579;43.238;23.124;2022-10-16T03:40:56;97782.59;;;10.67;71.05
39411;BME280;26579;43.238;23.124;2022-10-16T03:43:22;97777.72;;;10.62;71.63
39411;BME280;26579;43.238;23.124;2022-10-16T03:45:50;97771.78;;;10.60;71.24
39411;BME280;26579;43.238;23.124;2022-10-16T03:48:16;97786.97;;;10.66;71.11
39411;BME280;26579;43.238;23.124;2022-10-16T03:50:41;97785.41;;;10.63;71.25
39411;BME280;26579;43.238;23.124;2022-10-16T03:53:07;97790.75;;;10.62;71.43
39411;BME280;26579;43.238;23.124;2022-10-16T03:55:33;97790.22;;;10.57;71.51
39411;BME280;26579;43.238;23.124;2022-10-16T03:57:58;97792.28;;;10.64;71.26
39411;BME280;26579;43.238;23.124;2022-10-16T04:00:24;97785.94;;;10.56;71.20
39411;BME280;26579;43.238;23.124;2022-10-16T04:02:49;97796.56;;;10.65;71.20
39411;BME280;26579;43.238;23.124;2022-10-16T04:05:15;97795.31;;;10.58;71.03
39411;BME280;26579;43.238;23.124;2022-10-16T04:07:41;97756.06;;;10.36;71.09
39411;BME280;26579;43.238;23.124;2022-10-16T04:10:07;97800.94;;;10.52;71.76
39411;BME280;26579;43.238;23.124;2022-10-16T04:12:32;97797.28;;;10.55;71.25
39411;BME280;26579;43.238;23.124;2022-10-16T04:14:58;97803.25;;;10.57;71.36
39411;BME280;26579;43.238;23.124;2022-10-16T04:17:24;97794.38;;;10.47;71.34
39411;BME280;26579;43.238;23.124;2022-10-16T04:19:49;97807.91;;;10.52;71.40
39411;BME280;26579;43.238;23.124;2022-10-16T04:22:15;97791.97;;;10.43;71.34
39411;BME280;26579;43.238;23.124;2022-10-16T04:24:41;97794.91;;;10.39;71.63
39411;BME280;26579;43.238;23.124;2022-10-16T04:27:06;97797.19;;;10.43;71.72
39411;BME280;26579;43.238;23.124;2022-10-16T04:29:32;97792.31;;;10.39;71.88
39411;BME280;26579;43.238;23.124;2022-10-16T04:31:58;97796.69;;;10.38;71.92
39411;BME280;26579;43.238;23.124;2022-10-16T04:34:23;97799.50;;;10.48;71.07
39411;BME280;26579;43.238;23.124;2022-10-16T04:36:49;97809.47;;;10.54;71.04
39411;BME280;26579;43.238;23.124;2022-10-16T04:39:15;97815.63;;;10.53;71.05
39411;BME280;26579;43.238;23.124;2022-10-16T04:41:41;97796.16;;;10.46;71.04
39411;BME280;26579;43.238;23.124;2022-10-16T04:44:07;97804.28;;;10.41;71.10
39411;BME280;26579;43.238;23.124;2022-10-16T04:46:33;97821.88;;;10.51;71.07
39411;BME280;26579;43.238;23.124;2022-10-16T04:48:59;97809.88;;;10.35;71.36
39411;BME280;26579;43.238;23.124;2022-10-16T04:51:25;97810.53;;;10.39;71.14
39411;BME280;26579;43.238;23.124;2022-10-16T04:53:51;97816.34;;;10.42;71.34
39411;BME280;26579;43.238;23.124;2022-10-16T04:56:16;97817.59;;;10.37;71.71
39411;BME280;26579;43.238;23.124;2022-10-16T04:58:42;97824.91;;;10.45;71.49
39411;BME280;26579;43.238;23.124;2022-10-16T05:01:08;97826.34;;;10.49;71.27
39411;BME280;26579;43.238;23.124;2022-10-16T05:03:33;97806.34;;;10.36;71.67
39411;BME280;26579;43.238;23.124;2022-10-16T05:05:59;97818.22;;;10.40;71.75
39411;BME280;26579;43.238;23.124;2022-10-16T05:08:25;97832.72;;;10.45;71.88
39411;BME280;26579;43.238;23.124;2022-10-16T05:10:51;97823.97;;;10.46;71.76
39411;BME280;26579;43.238;23.124;2022-10-16T05:13:16;97828.00;;;10.50;71.53
39411;BME280;26579;43.238;23.124;2022-10-16T05:15:42;97832.31;;;10.51;71.76
39411;BME280;26579;43.238;23.124;2022-10-16T05:18:11;97837.59;;;10.49;72.01
39411;BME280;26579;43.238;23.124;2022-10-16T05:20:37;97821.97;;;10.49;71.70
39411;BME280;26579;43.238;23.124;2022-10-16T05:23:02;97839.38;;;10.61;71.71
39411;BME280;26579;43.238;23.124;2022-10-16T05:25:28;97836.34;;;10.55;71.83
39411;BME280;26579;43.238;23.124;2022-10-16T05:27:54;97835.22;;;10.59;71.60
39411;BME280;26579;43.238;23.124;2022-10-16T05:30:20;97835.53;;;10.54;71.90
39411;BME280;26579;43.238;23.124;2022-10-16T05:32:49;97853.13;;;10.63;71.54
39411;BME280;26579;43.238;23.124;2022-10-16T05:35:17;97860.50;;;10.70;72.04
39411;BME280;26579;43.238;23.124;2022-10-16T05:37:44;97849.47;;;10.66;71.57
39411;BME280;26579;43.238;23.124;2022-10-16T05:40:10;97862.09;;;10.72;72.24
39411;BME280;26579;43.238;23.124;2022-10-16T05:42:36;97822.09;;;10.60;72.56
39411;BME280;26579;43.238;23.124;2022-10-16T05:45:02;97857.81;;;10.97;71.89
39411;BME280;26579;43.238;23.124;2022-10-16T05:47:28;97860.72;;;11.05;71.29
39411;BME280;26579;43.238;23.124;2022-10-16T05:49:53;97875.09;;;11.23;70.76
39411;BME280;26579;43.238;23.124;2022-10-16T05:52:19;97851.53;;;11.12;69.97
39411;BME280;26579;43.238;23.124;2022-10-16T05:54:45;97876.41;;;11.42;69.53
39411;BME280;26579;43.238;23.124;2022-10-16T05:57:11;97879.09;;;11.53;69.01
39411;BME280;26579;43.238;23.124;2022-10-16T05:59:37;97870.97;;;11.82;68.24
39411;BME280;26579;43.238;23.124;2022-10-16T06:02:13;97874.59;;;11.92;68.05
39411;BME280;26579;43.238;23.124;2022-10-16T06:04:39;97881.94;;;12.11;67.48
39411;BME280;26579;43.238;23.124;2022-10-16T06:07:04;97875.31;;;12.64;65.10
39411;BME280;26579;43.238;23.124;2022-10-16T06:09:30;97891.03;;;12.76;64.65
39411;BME280;26579;43.238;23.124;2022-10-16T06:11:56;97892.78;;;12.64;65.07
39411;BME280;26579;43.238;23.124;2022-10-16T06:14:21;97887.09;;;12.70;64.97
39411;BME280;26579;43.238;23.124;2022-10-16T06:16:47;97892.50;;;13.13;63.65
39411;BME280;26579;43.238;23.124;2022-10-16T06:19:13;97895.88;;;13.93;61.42
39411;BME280;26579;43.238;23.124;2022-10-16T06:21:38;97896.50;;;13.96;60.40
39411;BME280;26579;43.238;23.124;2022-10-16T06:24:04;97909.47;;;13.75;60.85
39411;BME280;26579;43.238;23.124;2022-10-16T06:26:30;97885.50;;;13.48;61.13
39411;BME280;26579;43.238;23.124;2022-10-16T06:28:57;97906.19;;;13.51;62.07
39411;BME280;26579;43.238;23.124;2022-10-16T06:31:26;97907.16;;;13.39;62.43
39411;BME280;26579;43.238;23.124;2022-10-16T06:33:52;97898.94;;;13.32;62.81
39411;BME280;26579;43.238;23.124;2022-10-16T06:36:17;97910.22;;;13.44;62.86
39411;BME280;26579;43.238;23.124;2022-10-16T06:38:44;97905.47;;;13.38;62.53
39411;BME280;26579;43.238;23.124;2022-10-16T06:41:18;97909.63;;;13.40;62.53
39411;BME280;26579;43.238;23.124;2022-10-16T06:43:44;97911.03;;;13.55;62.13
39411;BME280;26579;43.238;23.124;2022-10-16T06:46:11;97924.09;;;13.78;61.26
39411;BME280;26579;43.238;23.124;2022-10-16T06:48:36;97906.97;;;13.96;61.35
39411;BME280;26579;43.238;23.124;2022-10-16T06:51:10;97931.22;;;14.31;60.49
39411;BME280;26579;43.238;23.124;2022-10-16T06:53:38;97911.94;;;14.85;58.51
39411;BME280;26579;43.238;23.124;2022-10-16T06:56:14;97921.28;;;15.60;56.62
39411;BME280;26579;43.238;23.124;2022-10-16T06:58:42;97924.84;;;15.59;56.54
39411;BME280;26579;43.238;23.124;2022-10-16T07:01:08;97914.34;;;15.49;56.64
39411;BME280;26579;43.238;23.124;2022-10-16T07:03:37;97919.56;;;15.39;56.57
39411;BME280;26579;43.238;23.124;2022-10-16T07:06:04;97918.50;;;15.52;57.24
39411;BME280;26579;43.238;23.124;2022-10-16T07:08:34;97925.28;;;15.64;57.77
39411;BME280;26579;43.238;23.124;2022-10-16T07:11:02;97926.19;;;15.13;59.28
39411;BME280;26579;43.238;23.124;2022-10-16T07:13:29;97925.44;;;15.01;60.22
39411;BME280;26579;43.238;23.124;2022-10-16T07:15:54;97926.00;;;15.05;61.16
39411;BME280;26579;43.238;23.124;2022-10-16T07:18:20;97944.47;;;15.03;60.69
39411;BME280;26579;43.238;23.124;2022-10-16T07:20:46;97942.56;;;15.05;60.85
39411;BME280;26579;43.238;23.124;2022-10-16T07:23:12;97939.84;;;15.07;60.93
39411;BME280;26579;43.238;23.124;2022-10-16T07:25:37;97933.34;;;15.42;59.83
39411;BME280;26579;43.238;23.124;2022-10-16T07:28:03;97943.56;;;16.06;57.73
39411;BME280;26579;43.238;23.124;2022-10-16T07:30:29;97937.31;;;15.67;57.74
39411;BME280;26579;43.238;23.124;2022-10-16T07:32:54;97944.09;;;15.38;59.71
39411;BME280;26579;43.238;23.124;2022-10-16T07:35:20;97947.25;;;15.32;60.29
39411;BME280;26579;43.238;23.124;2022-10-16T07:37:46;97951.81;;;15.61;60.37
39411;BME280;26579;43.238;23.124;2022-10-16T07:40:12;97947.44;;;15.40;60.40
39411;BME280;26579;43.238;23.124;2022-10-16T07:42:38;97955.00;;;15.65;60.44
39411;BME280;26579;43.238;23.124;2022-10-16T07:45:04;97945.19;;;15.67;60.17
39411;BME280;26579;43.238;23.124;2022-10-16T07:47:30;97951.28;;;15.67;59.87
39411;BME280;26579;43.238;23.124;2022-10-16T07:49:56;97941.50;;;16.39;56.61
39411;BME280;26579;43.238;23.124;2022-10-16T07:52:21;97957.72;;;17.77;52.89
39411;BME280;26579;43.238;23.124;2022-10-16T07:54:47;97944.13;;;18.98;49.57
39411;BME280;26579;43.238;23.124;2022-10-16T07:57:13;97940.59;;;19.68;46.88
39411;BME280;26579;43.238;23.124;2022-10-16T07:59:38;97941.59;;;18.53;49.32
39411;BME280;26579;43.238;23.124;2022-10-16T08:02:04;97955.97;;;18.59;49.64
39411;BME280;26579;43.238;23.124;2022-10-16T08:04:30;97947.84;;;19.40;46.50
39411;BME280;26579;43.238;23.124;2022-10-16T08:06:55;97941.66;;;19.23;45.47
39411;BME280;26579;43.238;23.124;2022-10-16T08:09:21;97950.09;;;19.87;44.01
39411;BME280;26579;43.238;23.124;2022-10-16T08:11:47;97959.28;;;20.25;43.26
39411;BME280;26579;43.238;23.124;2022-10-16T08:14:13;97955.22;;;20.55;41.72
39411;BME280;26579;43.238;23.124;2022-10-16T08:16:38;97957.41;;;20.68;40.29
39411;BME280;26579;43.238;23.124;2022-10-16T08:19:04;97951.44;;;20.66;41.03
39411;BME280;26579;43.238;23.124;2022-10-16T08:21:29;97948.22;;;20.30;40.15
39411;BME280;26579;43.238;23.124;2022-10-16T08:23:55;97948.94;;;21.06;39.02
39411;BME280;26579;43.238;23.124;2022-10-16T08:26:21;97959.34;;;21.23;38.50
39411;BME280;26579;43.238;23.124;2022-10-16T08:28:50;97965.59;;;22.34;36.51
39411;BME280;26579;43.238;23.124;2022-10-16T08:31:15;97963.31;;;22.77;35.02
39411;BME280;26579;43.238;23.124;2022-10-16T08:33:43;97956.69;;;23.19;34.54
39411;BME280;26579;43.238;23.124;2022-10-16T08:36:10;97957.16;;;23.52;34.55
39411;BME280;26579;43.238;23.124;2022-10-16T08:38:36;97953.53;;;24.77;32.57
39411;BME280;26579;43.238;23.124;2022-10-16T08:43:43;97964.41;;;25.25;30.44
39411;BME280;26579;43.238;23.124;2022-10-16T08:46:42;97960.13;;;25.02;29.97
39411;BME280;26579;43.238;23.124;2022-10-16T08:49:13;97964.78;;;25.00;29.93
39411;BME280;26579;43.238;23.124;2022-10-16T08:51:39;97966.13;;;24.90;29.15
39411;BME280;26579;43.238;23.124;2022-10-16T08:56:41;97962.59;;;26.56;29.67
39411;BME280;26579;43.238;23.124;2022-10-16T08:59:10;97960.28;;;26.47;28.15
39411;BME280;26579;43.238;23.124;2022-10-16T09:01:49;97967.06;;;26.49;28.51
39411;BME280;26579;43.238;23.124;2022-10-16T09:06:56;97983.19;;;25.80;28.00
39411;BME280;26579;43.238;23.124;2022-10-16T09:09:38;97972.06;;;26.04;28.88
39411;BME280;26579;43.238;23.124;2022-10-16T09:17:43;97978.63;;;25.39;29.12
39411;BME280;26579;43.238;23.124;2022-10-16T09:20:42;97979.97;;;25.56;29.07
39411;BME280;26579;43.238;23.124;2022-10-16T09:23:16;97981.13;;;25.75;28.98
39411;BME280;26579;43.238;23.124;2022-10-16T09:25:46;97976.97;;;25.31;29.83
39411;BME280;26579;43.238;23.124;2022-10-16T09:28:12;97974.09;;;24.61;30.42
39411;BME280;26579;43.238;23.124;2022-10-16T09:30:37;97982.75;;;24.49;31.83
39411;BME280;26579;43.238;23.124;2022-10-16T09:33:04;97985.66;;;24.17;30.37
39411;BME280;26579;43.238;23.124;2022-10-16T09:35:46;97978.09;;;24.36;30.98
39411;BME280;26579;43.238;23.124;2022-10-16T09:38:29;97973.91;;;24.84;31.00
39411;BME280;26579;43.238;23.124;2022-10-16T09:41:00;97983.16;;;24.67;31.69
39411;BME280;26579;43.238;23.124;2022-10-16T09:43:38;97967.94;;;24.61;30.75
39411;BME280;26579;43.238;23.124;2022-10-16T09:46:19;97974.56;;;25.15;31.64
39411;BME280;26579;43.238;23.124;2022-10-16T09:48:49;97985.31;;;24.78;30.98
39411;BME280;26579;43.238;23.124;2022-10-16T09:54:01;97977.69;;;24.54;31.90
39411;BME280;26579;43.238;23.124;2022-10-16T09:56:32;97975.50;;;25.07;30.37
39411;BME280;26579;43.238;23.124;2022-10-16T09:59:01;97974.78;;;24.34;31.04
39411;BME280;26579;43.238;23.124;2022-10-16T10:01:35;97965.72;;;24.28;31.40
39411;BME280;26579;43.238;23.124;2022-10-16T10:04:02;97970.19;;;24.06;32.36
39411;BME280;26579;43.238;23.124;2022-10-16T10:06:30;97967.88;;;23.59;31.98
39411;BME280;26579;43.238;23.124;2022-10-16T10:08:59;97968.22;;;23.26;33.36
39411;BME280;26579;43.238;23.124;2022-10-16T10:11:45;97972.72;;;23.40;33.14
39411;BME280;26579;43.238;23.124;2022-10-16T10:19:36;97960.84;;;23.81;31.58
39411;BME280;26579;43.238;23.124;2022-10-16T10:22:57;97965.63;;;23.85;31.13
39411;BME280;26579;43.238;23.124;2022-10-16T10:41:02;97933.06;;;23.54;31.49
39411;BME280;26579;43.238;23.124;2022-10-16T10:46:16;97929.19;;;23.12;32.13
39411;BME280;26579;43.238;23.124;2022-10-16T10:51:41;97940.06;;;23.02;32.40
39411;BME280;26579;43.238;23.124;2022-10-16T10:54:26;97938.22;;;22.79;32.38
39411;BME280;26579;43.238;23.124;2022-10-16T10:57:06;97934.38;;;22.44;33.14
39411;BME280;26579;43.238;23.124;2022-10-16T11:07:57;97929.53;;;23.09;32.43
39411;BME280;26579;43.238;23.124;2022-10-16T11:10:32;97926.81;;;22.94;32.65
39411;BME280;26579;43.238;23.124;2022-10-16T11:13:17;97921.50;;;22.79;32.99
39411;BME280;26579;43.238;23.124;2022-10-16T11:15:47;97916.81;;;23.04;32.96
39411;BME280;26579;43.238;23.124;2022-10-16T11:21:10;97919.66;;;23.47;32.02
39411;BME280;26579;43.238;23.124;2022-10-16T11:24:01;97931.22;;;23.24;32.69
39411;BME280;26579;43.238;23.124;2022-10-16T11:26:36;97929.53;;;23.09;32.35
39411;BME280;26579;43.238;23.124;2022-10-16T11:29:12;97923.91;;;22.66;32.20
39411;BME280;26579;43.238;23.124;2022-10-16T11:31:50;97916.97;;;21.79;33.32
39411;BME280;26579;43.238;23.124;2022-10-16T11:37:01;97925.38;;;21.91;33.24
39411;BME280;26579;43.238;23.124;2022-10-16T11:39:30;97931.22;;;21.78;33.35
39411;BME280;26579;43.238;23.124;2022-10-16T11:49:59;97933.16;;;21.45;34.22
39411;BME280;26579;43.238;23.124;2022-10-16T11:55:27;97927.19;;;21.35;33.92
39411;BME280;26579;43.238;23.124;2022-10-16T11:58:01;97924.22;;;21.46;34.50
39411;BME280;26579;43.238;23.124;2022-10-16T12:00:46;97924.84;;;21.64;33.15
39411;BME280;26579;43.238;23.124;2022-10-16T12:03:30;97924.78;;;21.73;32.66
39411;BME280;26579;43.238;23.124;2022-10-16T12:08:51;97899.94;;;21.74;33.69
39411;BME280;26579;43.238;23.124;2022-10-16T12:11:33;97938.69;;;22.14;32.63
39411;BME280;26579;43.238;23.124;2022-10-16T12:17:22;97937.66;;;21.84;33.06
39411;BME280;26579;43.238;23.124;2022-10-16T12:19:59;97930.03;;;21.81;33.20
39411;BME280;26579;43.238;23.124;2022-10-16T12:22:30;97930.22;;;22.10;33.45
39411;BME280;26579;43.238;23.124;2022-10-16T12:24:57;97918.97;;;21.77;32.39
39411;BME280;26579;43.238;23.124;2022-10-16T12:27:31;97932.56;;;21.74;32.84
39411;BME280;26579;43.238;23.124;2022-10-16T12:30:00;97920.06;;;21.91;32.46
39411;BME280;26579;43.238;23.124;2022-10-16T12:35:00;97927.81;;;22.32;32.43
39411;BME280;26579;43.238;23.124;2022-10-16T12:37:33;97914.72;;;22.30;32.72
39411;BME280;26579;43.238;23.124;2022-10-16T12:40:27;97934.19;;;22.23;32.26
39411;BME280;26579;43.238;23.124;2022-10-16T12:42:54;97912.53;;;22.34;33.09
39411;BME280;26579;43.238;23.124;2022-10-16T12:45:33;97921.34;;;22.57;32.54
39411;BME280;26579;43.238;23.124;2022-10-16T12:48:02;97920.03;;;22.53;31.54
39411;BME280;26579;43.238;23.124;2022-10-16T12:50:42;97913.13;;;22.44;32.41
39411;BME280;26579;43.238;23.124;2022-10-16T12:53:20;97925.28;;;22.62;32.50
39411;BME280;26579;43.238;23.124;2022-10-16T12:56:19;97927.13;;;22.61;31.74
39411;BME280;26579;43.238;23.124;2022-10-16T13:10:31;97928.38;;;22.19;31.52
39411;BME280;26579;43.238;23.124;2022-10-16T13:15:47;97934.84;;;22.17;32.58
39411;BME280;26579;43.238;23.124;2022-10-16T13:20:56;97934.47;;;22.28;32.40
39411;BME280;26579;43.238;23.124;2022-10-16T13:28:32;97938.19;;;21.79;31.97
39411;BME280;26579;43.238;23.124;2022-10-16T13:31:00;97941.13;;;21.84;32.53
39411;BME280;26579;43.238;23.124;2022-10-16T13:33:44;97942.66;;;21.79;32.21
39411;BME280;26579;43.238;23.124;2022-10-16T13:36:34;97947.78;;;21.80;32.03
39411;BME280;26579;43.238;23.124;2022-10-16T13:39:11;97938.25;;;22.02;32.58
39411;BME280;26579;43.238;23.124;2022-10-16T13:41:38;97937.34;;;22.10;32.10
39411;BME280;26579;43.238;23.124;2022-10-16T13:44:05;97948.34;;;21.99;31.82
39411;BME280;26579;43.238;23.124;2022-10-16T13:46:34;97933.13;;;21.92;31.66
39411;BME280;26579;43.238;23.124;2022-10-16T13:49:02;97939.97;;;21.87;32.80
39411;BME280;26579;43.238;23.124;2022-10-16T13:51:30;97945.47;;;21.77;32.93
39411;BME280;26579;43.238;23.124;2022-10-16T13:53:57;97941.97;;;21.85;32.94
39411;BME280;26579;43.238;23.124;2022-10-16T13:56:29;97942.50;;;21.72;31.90
39411;BME280;26579;43.238;23.124;2022-10-16T13:59:06;97948.63;;;21.73;32.85
39411;BME280;26579;43.238;23.124;2022-10-16T14:01:43;97953.28;;;21.79;31.93
39411;BME280;26579;43.238;23.124;2022-10-16T14:04:11;97953.44;;;21.77;33.26
39411;BME280;26579;43.238;23.124;2022-10-16T14:06:44;97953.53;;;21.92;34.10
39411;BME280;26579;43.238;23.124;2022-10-16T14:09:30;97957.09;;;22.07;35.70
39411;BME280;26579;43.238;23.124;2022-10-16T14:11:59;97949.78;;;22.18;33.83
39411;BME280;26579;43.238;23.124;2022-10-16T14:14:34;97941.50;;;22.12;34.03
39411;BME280;26579;43.238;23.124;2022-10-16T14:17:00;97953.88;;;22.28;33.49
39411;BME280;26579;43.238;23.124;2022-10-16T14:19:27;97945.72;;;22.30;33.04
39411;BME280;26579;43.238;23.124;2022-10-16T14:21:55;97955.88;;;22.26;33.20
39411;BME280;26579;43.238;23.124;2022-10-16T14:24:27;97962.81;;;22.27;34.05
39411;BME280;26579;43.238;23.124;2022-10-16T14:26:56;97937.91;;;22.05;34.75
39411;BME280;26579;43.238;23.124;2022-10-16T14:29:24;97965.69;;;22.18;34.26
39411;BME280;26579;43.238;23.124;2022-10-16T14:32:01;97953.16;;;22.03;33.87
39411;BME280;26579;43.238;23.124;2022-10-16T14:34:33;97948.69;;;21.96;33.69
39411;BME280;26579;43.238;23.124;2022-10-16T14:37:01;97951.09;;;21.82;35.82
39411;BME280;26579;43.238;23.124;2022-10-16T14:39:30;97956.41;;;21.74;35.96
39411;BME280;26579;43.238;23.124;2022-10-16T14:41:57;97952.78;;;21.67;36.31
39411;BME280;26579;43.238;23.124;2022-10-16T14:44:33;97960.25;;;21.63;36.24
39411;BME280;26579;43.238;23.124;2022-10-16T14:47:07;97954.50;;;21.43;36.88
39411;BME280;26579;43.238;23.124;2022-10-16T14:49:34;97952.91;;;21.10;38.06
39411;BME280;26579;43.238;23.124;2022-10-16T14:52:01;97965.97;;;20.70;38.93
39411;BME280;26579;43.238;23.124;2022-10-16T14:54:27;97969.53;;;20.28;40.17
39411;BME280;26579;43.238;23.124;2022-10-16T14:56:57;97972.66;;;19.73;41.60
39411;BME280;26579;43.238;23.124;2022-10-16T15:01:57;97976.56;;;18.91;43.57
39411;BME280;26579;43.238;23.124;2022-10-16T15:04:23;97990.72;;;18.72;44.73
39411;BME280;26579;43.238;23.124;2022-10-16T15:06:49;97986.69;;;18.32;45.35